createdAt,value
2022-10-04T00:02:34.141Z,77.18
2022-10-04T00:05:40.629Z,77.47
2022-10-04T00:08:47.363Z,77.71
2022-10-04T00:11:54.027Z,77.87
2022-10-04T00:15:01.223Z,78.26
2022-10-04T00:18:22.749Z,78.86
2022-10-04T00:21:54.854Z,78.86
2022-10-04T00:25:08.124Z,79.36
2022-10-04T00:28:30.438Z,79.78
2022-10-04T00:31:33.885Z,80.15
2022-10-04T00:34:36.374Z,80.09
2022-10-04T00:37:58.143Z,79.73
2022-10-04T00:41:07.914Z,79.53
2022-10-04T00:44:19.458Z,79.69
2022-10-04T00:47:37.465Z,79.53
2022-10-04T00:50:45.900Z,80.11
2022-10-04T00:53:52.660Z,80.24
2022-10-04T00:57:01.462Z,80.64
2022-10-04T01:00:19.355Z,81.05
2022-10-04T01:03:32.635Z,80.89
2022-10-04T01:06:37.526Z,80.92
2022-10-04T01:09:58.133Z,80.99
2022-10-04T01:13:06.712Z,80.87
2022-10-04T01:16:23.190Z,80.85
2022-10-04T01:19:32.004Z,80.74
2022-10-04T01:22:44.731Z,80.52
2022-10-04T01:25:50.406Z,80.63
2022-10-04T01:28:54.223Z,80.66
2022-10-04T01:31:59.881Z,80.97
2022-10-04T01:35:03.078Z,80.96
2022-10-04T01:38:07.290Z,80.99
2022-10-04T01:41:14.653Z,80.89
2022-10-04T01:44:21.831Z,80.83
2022-10-04T01:47:43.176Z,80.93
2022-10-04T01:51:04.986Z,81.23
2022-10-04T01:54:13.130Z,81.49
2022-10-04T01:57:20.226Z,81.87
2022-10-04T02:00:24.700Z,82.46
2022-10-04T02:03:27.715Z,82.66
2022-10-04T02:06:40.892Z,82.78
2022-10-04T02:09:47.826Z,82.96
2022-10-04T02:12:56.071Z,82.43
2022-10-04T02:16:03.104Z,81.95
2022-10-04T02:19:09.600Z,81.56
2022-10-04T02:22:15.672Z,81.62
2022-10-04T02:25:20.590Z,81.75
2022-10-04T02:28:25.346Z,81.90
2022-10-04T02:31:49.270Z,81.89
2022-10-04T02:34:57.428Z,81.89
2022-10-04T02:38:25.355Z,81.99
2022-10-04T02:41:29.933Z,81.93
2022-10-04T02:44:47.130Z,82.18
2022-10-04T02:48:00.633Z,82.50
2022-10-04T02:51:17.417Z,82.67
2022-10-04T02:54:49.608Z,82.90
2022-10-04T02:57:52.720Z,82.89
2022-10-04T03:00:59.129Z,82.79
2022-10-04T03:04:02.764Z,82.94
2022-10-04T03:07:08.713Z,82.93
2022-10-04T03:10:13.671Z,83.11
2022-10-04T03:13:20.184Z,83.33
2022-10-04T03:16:23.866Z,82.98
2022-10-04T03:19:33.190Z,82.75
2022-10-04T03:22:36.147Z,82.89
2022-10-04T03:25:53.582Z,83.04
2022-10-04T03:28:59.196Z,82.90
2022-10-04T03:32:05.229Z,82.90
2022-10-04T03:35:36.172Z,82.99
2022-10-04T03:38:40.344Z,83.20
2022-10-04T03:41:43.324Z,83.42
2022-10-04T03:44:51.728Z,83.32
2022-10-04T03:48:01.534Z,83.45
2022-10-04T03:51:11.749Z,83.58
2022-10-04T03:54:18.630Z,83.97
2022-10-04T03:57:23.543Z,84.17
2022-10-04T04:00:30.184Z,84.81
2022-10-04T04:03:58.478Z,85.41
2022-10-04T04:07:27.542Z,85.78
2022-10-04T04:10:33.971Z,86.07
2022-10-04T04:13:59.236Z,86.40
2022-10-04T04:17:26.334Z,86.77
2022-10-04T04:20:34.112Z,87.30
2022-10-04T04:23:41.965Z,87.49
2022-10-04T04:26:54.011Z,87.83
2022-10-04T04:30:05.337Z,87.82
2022-10-04T04:33:21.172Z,88.10
2022-10-04T04:36:28.300Z,88.48
2022-10-04T04:39:47.516Z,88.39
2022-10-04T04:43:00.433Z,88.39
2022-10-04T04:46:26.521Z,88.26
2022-10-04T04:49:37.145Z,88.12
2022-10-04T04:52:41.367Z,87.92
2022-10-04T04:56:04.521Z,87.74
2022-10-04T04:59:14.375Z,87.40
2022-10-04T05:02:31.419Z,87.26
2022-10-04T05:05:47.993Z,87.25
2022-10-04T05:08:52.041Z,87.18
2022-10-04T05:12:07.760Z,86.70
2022-10-04T05:15:19.521Z,86.23
2022-10-04T05:18:34.009Z,86.01
2022-10-04T05:21:42.872Z,85.88
2022-10-04T05:24:53.187Z,85.84
2022-10-04T05:28:04.365Z,86.10
2022-10-04T05:31:36.098Z,86.14
2022-10-04T05:35:28.304Z,86.20
2022-10-04T05:43:33.233Z,85.81
2022-10-04T05:46:44.002Z,85.86
2022-10-04T05:49:57.433Z,85.69
2022-10-04T05:54:03.650Z,85.47
2022-10-04T06:14:06.085Z,83.20
2022-10-04T06:17:21.985Z,82.68
2022-10-04T06:20:36.556Z,76.74
2022-10-04T06:23:55.818Z,70.55
2022-10-04T06:27:06.595Z,69.53
2022-10-04T06:30:16.745Z,67.06
2022-10-04T06:33:33.386Z,64.27
2022-10-04T06:37:00.890Z,61.63
2022-10-04T06:40:27.564Z,58.72
2022-10-04T06:44:02.636Z,58.46
2022-10-04T06:47:43.452Z,60.07
2022-10-04T06:50:53.361Z,66.13
2022-10-04T06:54:44.223Z,67.90
2022-10-04T06:58:24.980Z,69.65
2022-10-04T07:01:32.428Z,71.00
2022-10-04T07:05:08.662Z,72.32
2022-10-04T07:08:33.302Z,68.73
2022-10-04T07:11:55.648Z,62.39
2022-10-04T07:15:05.733Z,59.92
2022-10-04T07:18:35.253Z,64.42
2022-10-04T07:21:47.652Z,66.63
2022-10-04T07:24:51.236Z,68.51
2022-10-04T07:28:35.277Z,69.29
2022-10-04T07:31:44.779Z,70.53
2022-10-04T07:35:10.664Z,70.65
2022-10-04T07:38:32.346Z,70.58
2022-10-04T07:41:46.795Z,70.38
2022-10-04T07:45:26.814Z,70.77
2022-10-04T07:48:33.817Z,70.60
2022-10-04T07:51:52.164Z,70.74
2022-10-04T07:55:09.344Z,71.31
2022-10-04T07:58:43.375Z,71.07
2022-10-04T08:02:34.236Z,70.21
2022-10-04T08:06:12.157Z,68.85
2022-10-04T08:09:47.493Z,67.37
2022-10-04T08:12:59.082Z,65.48
2022-10-04T08:16:56.125Z,66.03
2022-10-04T08:20:19.564Z,66.08
2022-10-04T08:23:55.551Z,63.07
2022-10-04T08:28:09.352Z,60.85
2022-10-04T08:31:32.587Z,59.29
2022-10-04T08:34:55.571Z,56.82
2022-10-04T08:38:17.522Z,54.70
2022-10-04T08:42:10.760Z,54.26
2022-10-04T08:45:38.530Z,53.03
2022-10-04T08:49:03.929Z,55.07
2022-10-04T08:52:30.280Z,58.66
2022-10-04T08:56:02.750Z,60.35
2022-10-04T08:59:15.392Z,61.15
2022-10-04T09:03:01.478Z,60.80
2022-10-04T09:06:28.412Z,61.90
2022-10-04T09:10:25.368Z,62.00
2022-10-04T09:14:05.999Z,61.67
2022-10-04T09:18:34.907Z,62.05
2022-10-04T09:21:57.312Z,62.13
2022-10-04T09:25:37.211Z,60.88
2022-10-04T09:29:09.161Z,61.07
2022-10-04T09:32:49.184Z,61.51
2022-10-04T09:36:31.931Z,60.65
2022-10-04T09:40:00.949Z,59.75
2022-10-04T09:43:17.720Z,59.95
2022-10-04T09:46:39.542Z,60.89
2022-10-04T09:50:04.948Z,61.55
2022-10-04T09:53:50.495Z,61.35
2022-10-04T09:57:39.396Z,60.85
2022-10-04T10:00:59.934Z,59.95
2022-10-04T10:04:37.367Z,60.17
2022-10-04T10:08:08.335Z,59.48
2022-10-04T10:11:51.331Z,58.79
2022-10-04T10:15:27.807Z,59.44
2022-10-04T10:18:40.001Z,59.08
2022-10-04T10:22:13.832Z,57.77
2022-10-04T10:25:49.396Z,58.63
2022-10-04T10:28:59.876Z,58.08
2022-10-04T10:32:10.276Z,59.32
2022-10-04T10:35:35.623Z,60.58
2022-10-04T10:38:58.709Z,61.62
2022-10-04T10:42:38.916Z,61.18
2022-10-04T10:45:48.830Z,62.08
2022-10-04T10:49:10.555Z,61.37
2022-10-04T10:52:55.655Z,61.45
2022-10-04T10:56:32.751Z,61.49
2022-10-04T10:59:55.784Z,61.62
2022-10-04T11:03:18.189Z,61.57
2022-10-04T11:06:40.586Z,60.56
2022-10-04T11:09:46.848Z,60.40
2022-10-04T11:13:18.862Z,60.25
2022-10-04T11:17:14.654Z,60.55
2022-10-04T11:20:43.019Z,60.59
2022-10-04T11:24:15.607Z,57.79
2022-10-04T11:27:34.171Z,57.67
2022-10-04T11:31:03.040Z,57.34
2022-10-04T11:34:16.606Z,56.81
2022-10-04T11:37:44.298Z,58.66
2022-10-04T11:41:04.405Z,58.07
2022-10-04T11:44:36.347Z,58.60
2022-10-04T11:47:55.617Z,56.41
2022-10-04T11:51:27.269Z,56.55
2022-10-04T11:54:49.358Z,57.47
2022-10-04T11:58:27.591Z,57.77
2022-10-04T12:01:52.965Z,59.24
2022-10-04T12:04:59.650Z,58.91
2022-10-04T12:08:27.295Z,59.64
2022-10-04T12:12:11.949Z,59.58
2022-10-04T12:15:49.297Z,61.03
2022-10-04T12:19:03.819Z,60.01
2022-10-04T12:22:41.889Z,60.39
2022-10-04T12:25:53.822Z,61.21
2022-10-04T12:30:10.671Z,59.86
2022-10-04T12:33:37.239Z,60.57
2022-10-04T12:37:17.298Z,60.15
2022-10-04T12:40:38.339Z,58.61
2022-10-04T12:43:51.597Z,58.49
2022-10-04T12:47:01.960Z,59.50
2022-10-04T12:50:26.315Z,60.49
2022-10-04T12:53:58.867Z,60.71
2022-10-04T12:57:43.321Z,62.35
2022-10-04T13:00:52.398Z,63.25
2022-10-04T13:04:08.637Z,64.17
2022-10-04T13:07:41.147Z,64.00
2022-10-04T13:11:06.410Z,64.05
2022-10-04T13:14:41.067Z,64.36
2022-10-04T13:18:12.751Z,64.78
2022-10-04T13:21:41.023Z,64.68
2022-10-04T13:25:19.839Z,64.12
2022-10-04T13:28:52.782Z,63.41
2022-10-04T13:32:14.407Z,62.58
2022-10-04T13:35:36.676Z,60.99
2022-10-04T13:38:54.535Z,61.37
2022-10-04T13:42:27.019Z,61.72
2022-10-04T13:46:13.649Z,61.90
2022-10-04T13:49:34.293Z,62.25
2022-10-04T13:53:01.981Z,62.49
2022-10-04T13:56:40.551Z,63.06
2022-10-04T13:59:53.090Z,63.21
2022-10-04T14:03:29.983Z,63.48
2022-10-04T14:06:55.395Z,62.70
2022-10-04T14:10:23.253Z,61.63
2022-10-04T14:13:50.324Z,61.60
2022-10-04T14:17:29.541Z,61.71
2022-10-04T14:21:18.754Z,61.03
2022-10-04T14:24:56.291Z,60.71
2022-10-04T14:28:19.375Z,61.11
2022-10-04T14:31:46.798Z,61.64
2022-10-04T14:35:01.515Z,61.14
2022-10-04T14:38:40.730Z,61.51
2022-10-04T14:42:17.420Z,62.53
2022-10-04T14:45:35.340Z,63.83
2022-10-04T14:49:18.242Z,63.57
2022-10-04T14:52:59.775Z,63.44
2022-10-04T14:56:29.154Z,63.04
2022-10-04T14:59:57.130Z,62.90
2022-10-04T15:03:51.446Z,62.82
2022-10-04T15:07:14.775Z,62.97
2022-10-04T15:10:38.079Z,64.22
2022-10-04T15:13:55.984Z,64.61
2022-10-04T15:17:04.884Z,65.67
2022-10-04T15:20:21.944Z,65.85
2022-10-04T15:23:57.352Z,65.76
2022-10-04T15:27:32.084Z,65.15
2022-10-04T15:30:56.423Z,64.86
2022-10-04T15:34:24.336Z,64.66
2022-10-04T15:37:56.820Z,65.09
2022-10-04T15:41:46.489Z,64.65
2022-10-04T15:45:01.283Z,65.59
2022-10-04T15:49:01.281Z,65.04
2022-10-04T15:52:37.588Z,65.83
2022-10-04T15:56:05.574Z,66.19
2022-10-04T15:59:48.329Z,66.51
2022-10-04T16:03:36.369Z,67.39
2022-10-04T16:07:05.181Z,69.44
2022-10-04T16:10:48.327Z,70.35
2022-10-04T16:13:57.136Z,71.69
2022-10-04T16:17:31.245Z,72.59
2022-10-04T16:21:18.349Z,72.06
2022-10-04T16:24:45.932Z,72.89
2022-10-04T16:28:08.549Z,72.29
2022-10-04T16:31:44.436Z,73.39
2022-10-04T16:35:23.327Z,73.17
2022-10-04T16:39:10.077Z,73.17
2022-10-04T16:42:27.612Z,73.65
2022-10-04T16:45:43.571Z,74.14
2022-10-04T16:49:20.387Z,74.54
2022-10-04T16:52:33.479Z,75.49
2022-10-04T16:56:06.324Z,76.37
2022-10-04T17:25:15.276Z,80.81
2022-10-04T17:28:30.863Z,81.01
2022-10-04T17:31:48.485Z,81.19
2022-10-04T17:35:19.326Z,81.41
2022-10-04T17:39:12.361Z,81.59
2022-10-04T17:42:52.540Z,82.12
2022-10-04T17:46:12.666Z,83.25
2022-10-04T17:50:39.321Z,83.42
2022-10-04T17:54:16.183Z,83.83
2022-10-04T17:57:39.313Z,84.02
2022-10-04T18:01:11.345Z,84.12
2022-10-04T18:04:48.030Z,84.45
2022-10-04T18:08:15.397Z,84.50
2022-10-04T18:12:01.313Z,84.56
2022-10-04T18:15:49.607Z,85.09
2022-10-04T18:19:23.983Z,85.39
2022-10-04T18:23:03.201Z,86.04
2022-10-04T18:26:18.609Z,87.16
2022-10-04T18:29:48.033Z,87.59
2022-10-04T18:33:06.260Z,87.70
2022-10-04T18:36:33.732Z,87.89
2022-10-04T18:39:56.373Z,88.26
2022-10-04T18:43:29.387Z,88.66
2022-10-04T18:46:40.673Z,88.57
2022-10-04T18:49:54.626Z,88.73
2022-10-04T18:53:13.617Z,89.30
2022-10-04T18:56:34.171Z,89.54
2022-10-04T19:00:09.413Z,89.48
2022-10-04T19:03:26.307Z,89.50
2022-10-04T19:06:35.979Z,89.44
2022-10-04T19:10:10.274Z,89.43
2022-10-04T19:13:45.577Z,89.33
2022-10-04T19:17:14.317Z,89.11
2022-10-04T19:20:39.421Z,88.95
2022-10-04T19:24:31.233Z,88.90
2022-10-04T19:27:47.603Z,89.26
2022-10-04T19:31:29.481Z,89.70
2022-10-04T19:34:54.659Z,89.98
2022-10-04T19:38:27.371Z,90.48
2022-10-04T19:41:48.610Z,90.66
2022-10-04T19:45:24.944Z,90.66
2022-10-04T19:48:45.592Z,90.77
2022-10-04T19:52:05.203Z,90.58
2022-10-04T19:55:25.100Z,90.83
2022-10-04T19:58:48.492Z,91.08
2022-10-04T20:01:56.233Z,90.78
2022-10-04T20:05:15.422Z,90.26
2022-10-04T20:08:52.623Z,90.60
2022-10-04T20:12:06.110Z,90.09
2022-10-04T20:15:36.327Z,90.09
2022-10-04T20:18:42.092Z,91.03
2022-10-04T20:21:57.554Z,91.11
2022-10-04T20:25:10.343Z,90.75
2022-10-04T20:28:42.115Z,90.87
2022-10-04T20:31:54.372Z,90.88
2022-10-04T20:34:59.194Z,90.66
2022-10-04T20:38:30.691Z,90.82
2022-10-04T20:41:29.374Z,91.34
2022-10-04T20:44:55.393Z,91.51
2022-10-04T20:48:02.642Z,91.25
2022-10-04T20:51:21.844Z,91.26
2022-10-04T20:54:27.234Z,91.18
2022-10-04T20:57:34.396Z,91.00
2022-10-04T21:00:54.578Z,90.84
2022-10-04T21:04:19.573Z,91.04
2022-10-04T21:07:25.650Z,90.91
